Terminal Aerodrome Forecast
Issued by NWS Tulsa, OK

Home | Current Version | Previous Version | Text Only | Print | Product List | Glossary Off
Versions: 1 2 3 4 5 6 7 8 9 10 11 12

000
FTUS44 KTSA 261100
TAFTUL
TAF
KTUL 261127Z 2612/2712 18010KT P6SM FEW250
     FM261600 20015G25KT P6SM FEW050 SCT250
     FM270200 18010KT P6SM SCT150=

USA.gov is the U.S. government's official web portal to all federal, state and local government web resources and services.